createdAt,value
2022-10-17T00:08:58.105Z,100.00
2022-10-17T00:24:01.369Z,100.00
2022-10-17T00:39:04.534Z,100.00
2022-10-17T00:54:09.968Z,100.00
2022-10-17T01:09:13.368Z,100.00
2022-10-17T01:24:47.457Z,100.00
2022-10-17T01:40:10.821Z,100.00
2022-10-17T01:55:20.923Z,100.00
2022-10-17T02:10:36.320Z,100.00
2022-10-17T02:25:48.601Z,100.00
2022-10-17T02:40:53.288Z,100.00
2022-10-17T02:56:05.384Z,100.00
2022-10-17T03:11:09.045Z,100.00
2022-10-17T03:26:12.161Z,100.00
2022-10-17T03:41:15.594Z,100.00
2022-10-17T03:56:24.859Z,100.00
2022-10-17T04:11:42.562Z,100.00
2022-10-17T04:26:46.284Z,100.00
2022-10-17T04:41:50.097Z,100.00
2022-10-17T04:56:53.961Z,100.00
2022-10-17T05:11:57.997Z,100.00
2022-10-17T05:27:01.787Z,100.00
2022-10-17T05:42:05.115Z,100.00
2022-10-17T05:57:09.416Z,100.00
2022-10-17T06:12:13.511Z,100.00
2022-10-17T06:27:18.191Z,100.00
2022-10-17T06:42:22.110Z,100.00
2022-10-17T06:57:45.961Z,100.00
2022-10-17T07:13:08.739Z,100.00
2022-10-17T07:28:15.344Z,100.00
2022-10-17T07:43:18.807Z,100.00
2022-10-17T07:58:22.598Z,100.00
2022-10-17T08:13:25.948Z,100.00
2022-10-17T08:28:29.690Z,100.00
2022-10-17T08:44:17.546Z,100.00
2022-10-17T08:59:26.969Z,100.00
2022-10-17T09:14:45.081Z,100.00
2022-10-17T09:29:51.340Z,100.00
2022-10-17T09:45:26.387Z,98.60
2022-10-17T10:00:31.034Z,94.60
2022-10-17T10:15:39.619Z,90.59
2022-10-17T10:30:47.919Z,89.93
2022-10-17T10:45:52.320Z,87.27
2022-10-17T11:09:57.803Z,85.67
2022-10-17T11:25:08.664Z,84.12
2022-10-17T11:40:21.922Z,83.11
2022-10-17T11:55:30.123Z,81.25
2022-10-17T12:10:43.146Z,79.33
2022-10-17T12:25:59.634Z,79.72
2022-10-17T12:41:08.331Z,78.27
2022-10-17T12:56:46.190Z,75.19
2022-10-17T13:11:50.825Z,76.09
2022-10-17T13:26:54.637Z,72.20
2022-10-17T13:41:58.665Z,65.09
2022-10-17T13:57:05.039Z,62.50
2022-10-17T14:12:16.984Z,60.06
2022-10-17T14:27:35.541Z,61.51
2022-10-17T14:42:40.768Z,68.14
2022-10-17T14:57:46.263Z,73.84
2022-10-17T15:12:58.898Z,77.19
2022-10-17T15:28:12.195Z,81.60
2022-10-17T15:43:19.678Z,85.09
2022-10-17T15:58:23.193Z,88.53
2022-10-17T16:13:26.216Z,91.92
2022-10-17T16:28:29.885Z,95.24
2022-10-17T16:43:36.707Z,97.75
2022-10-17T16:58:41.116Z,99.73
2022-10-17T17:13:44.540Z,100.00
2022-10-17T17:28:49.883Z,100.00
2022-10-17T17:43:53.810Z,100.00
2022-10-17T17:59:00.303Z,100.00
2022-10-17T18:14:07.364Z,100.00
2022-10-17T18:29:13.509Z,100.00
2022-10-17T18:44:17.745Z,100.00
2022-10-17T18:59:25.030Z,100.00
2022-10-17T19:14:30.701Z,100.00
2022-10-17T19:29:34.696Z,100.00
2022-10-17T19:44:38.312Z,100.00
2022-10-17T19:59:41.323Z,100.00
2022-10-17T20:14:44.635Z,100.00
2022-10-17T20:29:48.044Z,100.00
2022-10-17T20:44:51.174Z,100.00
2022-10-17T20:59:54.197Z,100.00
2022-10-17T21:14:57.934Z,100.00
2022-10-17T21:30:01.267Z,100.00
2022-10-17T21:45:10.605Z,100.00
2022-10-17T22:00:19.488Z,100.00
2022-10-17T22:15:22.817Z,100.00
2022-10-17T22:30:26.086Z,100.00
2022-10-17T22:45:29.184Z,100.00
2022-10-17T23:00:32.119Z,100.00
2022-10-17T23:15:35.504Z,100.00
2022-10-17T23:30:39.463Z,100.00
2022-10-17T23:45:42.689Z,100.00
